Time;durP1;ratioP1;P1;durP2;ratioP2;P2;SDS_P1;SDS_P2;PMS_P1;PMS_P2;Temp;Humidity;BMP_temperature;BMP_pressure;BME280_temperature;BME280_humidity;BME280_pressure;Samples;Min_cycle;Max_cycle;Signal;HPM_P1;HPM_P2
2023/07/16 00:01:44;;;;;;;2.72;1.30;;;23.30;69.60;;;;;;5028610;28;20124;-40
2023/07/16 00:04:10;;;;;;;1.52;1.17;;;22.70;80.20;;;;;;5028428;28;20132;-40
2023/07/16 00:06:37;;;;;;;2.50;1.40;;;;;;;;;;5028592;28;20161;-38
2023/07/16 00:09:04;;;;;;;2.30;1.38;;;;;;;;;;5028884;28;20133;-39
2023/07/16 00:11:31;;;;;;;2.50;1.33;;;;;;;;;;5028702;28;20144;-36
2023/07/16 00:14:01;;;;;;;1.98;1.40;;;22.90;64.20;;;;;;5028455;28;20053;-38
2023/07/16 00:16:28;;;;;;;2.20;1.40;;;22.80;79.30;;;;;;5028573;28;20053;-39
2023/07/16 00:18:55;;;;;;;2.78;1.40;;;22.40;80.00;;;;;;5027038;28;20538;-39
2023/07/16 00:21:22;;;;;;;2.50;1.33;;;;;;;;;;5028680;28;20084;-33
2023/07/16 00:23:48;;;;;;;1.88;1.20;;;22.00;79.10;;;;;;5028185;28;20051;-39
2023/07/16 00:26:15;;;;;;;2.70;1.50;;;22.60;79.00;;;;;;5028682;28;20046;-39
2023/07/16 00:28:42;;;;;;;1.95;1.38;;;;;;;;;;5028107;28;20092;-33
2023/07/16 00:31:10;;;;;;;2.72;1.60;;;22.40;79.60;;;;;;5028588;28;20129;-40
2023/07/16 00:33:37;;;;;;;2.13;1.30;;;;;;;;;;5027982;28;20046;-37
2023/07/16 00:36:05;;;;;;;2.90;1.40;;;;;;;;;;5027624;28;20056;-36
2023/07/16 00:38:32;;;;;;;2.72;1.60;;;;;;;;;;5028227;28;20077;-35
2023/07/16 00:40:59;;;;;;;2.05;1.40;;;;;;;;;;5028209;28;20052;-37
2023/07/16 00:43:26;;;;;;;2.00;1.35;;;22.40;64.20;;;;;;5027949;28;20056;-38
2023/07/16 00:45:53;;;;;;;1.75;1.27;;;;;;;;;;5008069;28;20056;-39
2023/07/16 00:48:21;;;;;;;2.13;1.63;;;22.90;66.20;;;;;;5008591;28;20130;-39
2023/07/16 00:50:48;;;;;;;2.45;1.50;;;22.50;79.30;;;;;;5008117;28;20413;-40
2023/07/16 00:53:15;;;;;;;2.92;1.60;;;;;;;;;;5008183;28;20136;-36
2023/07/16 00:55:41;;;;;;;2.78;1.50;;;23.10;79.80;;;;;;5008083;28;20137;-39
2023/07/16 00:58:08;;;;;;;4.10;1.60;;;22.60;79.30;;;;;;5008091;28;20621;-40
2023/07/16 01:00:35;;;;;;;3.17;1.52;;;;;;;;;;5008018;28;20137;-36
2023/07/16 01:03:02;;;;;;;2.50;1.60;;;23.20;74.00;;;;;;5007986;28;20560;-39
2023/07/16 01:05:34;;;;;;;2.45;1.50;;;22.80;64.00;;;;;;5008237;28;20050;-36
2023/07/16 01:08:03;;;;;;;4.70;1.40;;;22.60;79.30;;;;;;5008032;28;20054;-39
2023/07/16 01:10:30;;;;;;;3.53;1.40;;;;;;;;;;5007926;28;20075;-36
2023/07/16 01:12:56;;;;;;;3.08;1.40;;;22.60;79.50;;;;;;5007883;28;20132;-40
2023/07/16 01:15:23;;;;;;;2.20;1.35;;;;;;;;;;5008286;28;20133;-36
2023/07/16 01:17:50;;;;;;;2.90;1.30;;;22.00;78.60;;;;;;5007866;28;20084;-39
2023/07/16 01:20:17;;;;;;;3.35;1.33;;;23.10;77.40;;;;;;5007737;28;20132;-37
2023/07/16 01:22:53;;;;;;;3.25;1.55;;;22.80;63.70;;;;;;5007821;28;20132;-38
2023/07/16 01:25:31;;;;;;;2.75;1.55;;;;;;;;;;5007794;28;20137;-38
2023/07/16 01:28:09;;;;;;;3.10;1.58;;;22.50;75.30;;;;;;5008162;28;20133;-40
2023/07/16 01:30:38;;;;;;;2.75;1.58;;;22.60;63.60;;;;;;5010137;28;20056;-39
2023/07/16 01:33:05;;;;;;;3.78;1.42;;;22.20;64.70;;;;;;5011467;28;20046;-39
2023/07/16 01:35:32;;;;;;;2.90;1.70;;;;;;;;;;5011035;28;20145;-36
2023/07/16 01:37:59;;;;;;;3.15;1.38;;;;;;;;;;5028450;28;20077;-37
2023/07/16 01:40:26;;;;;;;2.58;1.63;;;;;;;;;;5030897;28;20137;-39
2023/07/16 01:42:53;;;;;;;2.70;1.23;;;22.90;67.40;;;;;;5030533;28;20045;-39
2023/07/16 01:45:19;;;;;;;2.22;1.50;;;22.70;63.60;;;;;;5031079;28;20129;-40
2023/07/16 01:47:51;;;;;;;3.22;1.70;;;22.70;63.60;;;;;;5030511;28;20133;-35
2023/07/16 01:50:18;;;;;;;3.10;1.45;;;;;;;;;;5030626;28;20057;-38
2023/07/16 01:52:45;;;;;;;3.92;1.38;;;23.30;79.30;;;;;;5030331;28;20050;-37
2023/07/16 01:55:11;;;;;;;3.15;1.60;;;22.60;79.00;;;;;;5026905;28;20145;-38
2023/07/16 01:57:39;;;;;;;1.73;1.50;;;;;;;;;;5014265;28;20057;-36
2023/07/16 02:00:08;;;;;;;2.95;1.52;;;22.70;79.10;;;;;;5014562;28;20554;-38
2023/07/16 02:02:35;;;;;;;3.13;1.45;;;;;;;;;;5010752;28;20117;-34
2023/07/16 02:05:03;;;;;;;4.55;1.65;;;22.60;79.50;;;;;;5010624;28;20129;-35
2023/07/16 02:07:30;;;;;;;2.97;1.60;;;;;;;;;;5010862;28;20133;-37
2023/07/16 02:09:57;;;;;;;4.57;1.63;;;22.00;69.50;;;;;;5010855;28;20050;-37
2023/07/16 02:12:24;;;;;;;2.55;1.58;;;;;;;;;;5010506;28;20486;-36
2023/07/16 02:14:51;;;;;;;1.90;1.40;;;;;;;;;;5010655;28;20562;-34
2023/07/16 02:17:18;;;;;;;3.28;1.67;;;22.10;79.40;;;;;;5010522;28;20414;-37
2023/07/16 02:19:44;;;;;;;4.30;1.60;;;23.00;77.60;;;;;;5010286;28;20129;-37
2023/07/16 02:22:12;;;;;;;3.47;1.70;;;22.70;63.50;;;;;;5010282;28;20730;-37
2023/07/16 02:24:39;;;;;;;2.80;1.58;;;;;;;;;;5010268;28;20049;-34
2023/07/16 02:27:06;;;;;;;4.00;1.60;;;22.70;78.80;;;;;;5012312;28;20137;-39
2023/07/16 02:29:34;;;;;;;3.13;1.70;;;;;;;;;;5030020;28;20051;-36
2023/07/16 02:32:01;;;;;;;3.75;1.65;;;;;;;;;;5030023;28;20045;-35
2023/07/16 02:34:28;;;;;;;3.78;1.75;;;;;;;;;;5030007;28;20113;-35
2023/07/16 02:36:55;;;;;;;6.57;1.85;;;;;;;;;;5025462;28;20049;-36
2023/07/16 02:39:23;;;;;;;2.13;1.40;;;22.60;63.30;;;;;;5029855;28;20136;-35
2023/07/16 02:41:50;;;;;;;2.22;1.60;;;22.40;65.50;;;;;;5028450;28;20077;-37
2023/07/16 02:44:17;;;;;;;3.53;1.75;;;;;;;;;;5029681;28;20518;-35
2023/07/16 02:46:44;;;;;;;4.03;1.75;;;;;;;;;;5029608;28;20540;-36
2023/07/16 02:49:11;;;;;;;2.83;1.60;;;22.10;78.70;;;;;;5027969;28;20045;-38
2023/07/16 02:51:38;;;;;;;2.70;1.70;;;;;;;;;;5010561;28;20133;-33
2023/07/16 02:54:05;;;;;;;3.10;1.45;;;22.40;78.50;;;;;;5009800;28;20057;-38
2023/07/16 02:56:33;;;;;;;2.13;1.65;;;22.00;74.90;;;;;;5010273;28;20637;-39
2023/07/16 02:59:00;;;;;;;3.05;1.48;;;;;;;;;;5010087;28;20060;-38
2023/07/16 03:01:27;;;;;;;2.17;1.48;;;22.30;78.40;;;;;;5009981;28;20141;-36
2023/07/16 03:03:54;;;;;;;2.35;1.55;;;;;;;;;;5010045;28;20049;-38
2023/07/16 03:06:21;;;;;;;2.97;1.60;;;23.40;69.80;;;;;;5009900;28;20129;-38
2023/07/16 03:08:48;;;;;;;3.28;1.70;;;;;;;;;;5010154;28;20124;-37
2023/07/16 03:11:15;;;;;;;2.97;1.83;;;;;;;;;;5009767;28;20534;-35
2023/07/16 03:13:43;;;;;;;3.60;1.52;;;22.60;63.00;;;;;;5009600;28;20662;-37
2023/07/16 03:16:10;;;;;;;4.35;2.00;;;22.60;78.40;;;;;;5010011;28;20128;-39
2023/07/16 03:18:37;;;;;;;4.57;1.70;;;22.60;78.80;;;;;;5009835;28;20146;-38
2023/07/16 03:21:04;;;;;;;2.50;1.50;;;22.60;78.50;;;;;;5009836;28;20136;-37
2023/07/16 03:23:30;;;;;;;3.80;1.70;;;22.50;78.30;;;;;;5012621;28;20465;-37
2023/07/16 03:25:57;;;;;;;2.50;1.58;;;;;;;;;;5029455;28;20132;-36
2023/07/16 03:28:24;;;;;;;3.05;1.90;;;23.30;79.00;;;;;;5029276;28;20046;-39
2023/07/16 03:30:53;;;;;;;3.03;1.80;;;22.00;78.90;;;;;;5019685;28;20128;-39
2023/07/16 03:33:20;;;;;;;3.63;1.83;;;22.40;76.00;;;;;;5009378;28;20136;-37
2023/07/16 03:35:48;;;;;;;2.13;1.60;;;22.70;78.50;;;;;;5009520;28;20053;-39
2023/07/16 03:38:15;;;;;;;4.40;2.10;;;;;;;;;;5009446;28;20128;-36
2023/07/16 03:40:43;;;;;;;3.13;1.88;;;22.50;62.80;;;;;;5009478;28;20083;-37
2023/07/16 03:43:10;;;;;;;2.70;1.92;;;22.50;65.20;;;;;;5009400;28;20064;-35
2023/07/16 03:45:36;;;;;;;3.15;1.88;;;22.80;79.00;;;;;;5026722;28;20526;-37
2023/07/16 03:48:05;;;;;;;2.47;1.77;;;22.50;62.80;;;;;;5029181;28;20132;-36
2023/07/16 03:50:32;;;;;;;4.10;2.00;;;;;;;;;;5028980;28;20056;-35
2023/07/16 03:52:59;;;;;;;3.28;2.10;;;22.50;78.70;;;;;;5028843;28;20136;-38
2023/07/16 03:55:26;;;;;;;4.72;1.80;;;;;;;;;;5028656;28;20557;-34
2023/07/16 03:57:54;;;;;;;2.65;1.85;;;;;;;;;;5020465;28;20057;-36
2023/07/16 04:00:21;;;;;;;3.22;1.85;;;;;;;;;;5015609;28;20246;-38
2023/07/16 04:02:47;;;;;;;2.83;1.90;;;22.90;64.40;;;;;;5009024;28;20052;-35
2023/07/16 04:05:15;;;;;;;4.63;2.15;;;22.50;62.70;;;;;;5009097;28;20050;-37
2023/07/16 04:07:43;;;;;;;3.30;1.92;;;;;;;;;;5009170;28;20050;-33
2023/07/16 04:10:10;;;;;;;3.75;2.13;;;22.50;78.20;;;;;;5008743;28;20049;-38
2023/07/16 04:12:37;;;;;;;3.05;1.90;;;;;;;;;;5008864;28;20046;-34
2023/07/16 04:15:08;;;;;;;2.95;1.77;;;23.00;79.20;;;;;;5013232;28;20050;-40
2023/07/16 04:17:34;;;;;;;3.20;1.88;;;22.40;78.10;;;;;;5008876;28;20565;-39
2023/07/16 04:20:01;;;;;;;4.80;1.80;;;;;;;;;;5013989;28;20128;-36
2023/07/16 04:22:29;;;;;;;3.75;2.47;;;22.70;78.80;;;;;;5028100;28;20064;-39
2023/07/16 04:24:56;;;;;;;5.00;2.05;;;;;;;;;;5028740;28;20064;-38
2023/07/16 04:27:23;;;;;;;3.78;2.00;;;22.50;69.80;;;;;;5028670;28;20053;-36
2023/07/16 04:29:50;;;;;;;3.13;1.83;;;22.80;78.60;;;;;;5027923;28;20049;-37
2023/07/16 04:32:17;;;;;;;3.08;1.70;;;22.60;76.10;;;;;;5028500;28;20128;-37
2023/07/16 04:34:44;;;;;;;4.20;1.90;;;;;;;;;;5028130;28;20478;-36
2023/07/16 04:37:11;;;;;;;2.40;1.90;;;;;;;;;;5027647;28;20132;-38
2023/07/16 04:39:39;;;;;;;3.67;1.90;;;22.40;62.50;;;;;;5028348;28;20045;-34
2023/07/16 04:42:06;;;;;;;4.60;2.00;;;22.40;62.50;;;;;;5028408;28;20161;-38
2023/07/16 04:44:33;;;;;;;4.32;2.30;;;22.40;78.10;;;;;;5028204;28;20053;-37
2023/07/16 04:47:00;;;;;;;2.95;1.90;;;;;;;;;;5010353;28;20136;-37
2023/07/16 04:49:27;;;;;;;3.40;1.92;;;;;;;;;;5020649;28;20517;-35
2023/07/16 04:51:54;;;;;;;2.58;2.00;;;;;;;;;;5028258;28;20459;-34
2023/07/16 04:54:21;;;;;;;4.32;2.03;;;22.70;78.60;;;;;;5028191;28;20150;-39
2023/07/16 04:56:49;;;;;;;3.45;2.30;;;23.40;77.10;;;;;;5028081;28;20049;-36
2023/07/16 04:59:15;;;;;;;5.93;2.10;;;22.10;77.80;;;;;;5027895;28;20133;-36
2023/07/16 05:01:42;;;;;;;4.40;2.40;;;22.10;62.60;;;;;;5021751;28;20783;-36
2023/07/16 05:04:09;;;;;;;3.83;2.22;;;22.40;74.90;;;;;;5018343;28;20144;-37
2023/07/16 05:06:36;;;;;;;3.17;2.10;;;;;;;;;;5028213;28;20053;-39
2023/07/16 05:09:03;;;;;;;3.58;2.20;;;22.40;72.80;;;;;;5028012;28;20048;-37
2023/07/16 05:11:30;;;;;;;4.72;2.58;;;;;;;;;;5028109;28;20049;-36
2023/07/16 05:13:58;;;;;;;3.72;2.00;;;23.30;64.40;;;;;;5027734;28;20084;-33
2023/07/16 05:16:25;;;;;;;4.28;2.10;;;;;;;;;;5027571;28;20132;-36
2023/07/16 05:18:52;;;;;;;3.75;2.13;;;22.60;78.20;;;;;;5017761;28;20574;-37
2023/07/16 05:21:19;;;;;;;3.08;2.30;;;;;;;;;;5008107;28;20137;-38
2023/07/16 05:23:45;;;;;;;4.25;2.30;;;21.60;77.80;;;;;;5007808;28;20133;-38
2023/07/16 05:26:12;;;;;;;5.18;2.20;;;22.10;78.20;;;;;;5008120;28;20056;-37
2023/07/16 05:28:39;;;;;;;4.25;2.10;;;;;;;;;;5008309;28;20511;-33
2023/07/16 05:31:07;;;;;;;3.15;1.95;;;22.20;77.70;;;;;;5008496;28;20407;-39
2023/07/16 05:33:34;;;;;;;3.75;2.53;;;22.80;78.00;;;;;;5009031;28;20452;-39
2023/07/16 05:36:01;;;;;;;4.20;2.17;;;22.80;69.00;;;;;;5018137;28;20049;-37
2023/07/16 05:38:28;;;;;;;3.75;2.00;;;;;;;;;;5026537;28;20488;-34
2023/07/16 05:40:54;;;;;;;3.85;2.00;;;22.30;77.60;;;;;;5026527;28;20401;-39
2023/07/16 05:43:21;;;;;;;5.43;2.22;;;22.00;67.10;;;;;;5017446;28;20060;-39
2023/07/16 05:45:49;;;;;;;2.92;2.17;;;22.30;62.30;;;;;;5018846;28;20506;-35
2023/07/16 05:48:17;;;;;;;3.88;2.30;;;22.40;73.60;;;;;;5027943;28;20053;-37
2023/07/16 05:50:44;;;;;;;4.78;2.60;;;21.50;71.60;;;;;;5025920;28;20130;-36
2023/07/16 05:53:13;;;;;;;5.05;2.38;;;23.10;67.90;;;;;;5027639;28;20075;-34
2023/07/16 05:55:40;;;;;;;4.00;2.30;;;22.30;62.20;;;;;;5027445;28;20050;-35
2023/07/16 05:58:07;;;;;;;5.15;2.10;;;23.10;78.60;;;;;;5027597;28;20072;-37
2023/07/16 06:00:34;;;;;;;4.35;2.30;;;22.90;66.80;;;;;;5027015;28;20581;-38
2023/07/16 06:03:01;;;;;;;3.75;2.30;;;;;;;;;;5024461;28;20141;-36
2023/07/16 06:05:32;;;;;;;3.70;2.35;;;22.30;62.20;;;;;;5020110;28;20053;-35
2023/07/16 06:07:59;;;;;;;3.00;1.95;;;;;;;;;;5016668;28;20042;-35
2023/07/16 06:10:26;;;;;;;6.22;2.20;;;22.50;77.90;;;;;;5016426;28;20046;-36
2023/07/16 06:12:53;;;;;;;3.60;1.98;;;;;;;;;;5018391;28;20052;-36
2023/07/16 06:15:19;;;;;;;2.83;2.03;;;22.70;71.70;;;;;;5016197;28;20049;-37
2023/07/16 06:17:46;;;;;;;4.65;2.10;;;;;;;;;;5019933;28;20206;-35
2023/07/16 06:20:13;;;;;;;4.65;2.05;;;22.20;77.60;;;;;;5018338;28;20049;-38
2023/07/16 06:22:41;;;;;;;3.08;1.95;;;22.40;74.20;;;;;;5020878;28;20048;-36
2023/07/16 06:25:10;;;;;;;4.53;2.45;;;22.30;77.70;;;;;;5019936;28;20133;-38
2023/07/16 06:27:37;;;;;;;3.63;2.10;;;22.10;70.50;;;;;;5019713;28;20080;-36
2023/07/16 06:30:05;;;;;;;4.90;2.40;;;22.30;62.00;;;;;;5021128;28;20135;-37
2023/07/16 06:32:32;;;;;;;3.65;2.30;;;;;;;;;;5019911;28;20054;-35
2023/07/16 06:34:59;;;;;;;3.92;2.25;;;22.50;71.30;;;;;;5011871;28;20142;-38
2023/07/16 06:37:26;;;;;;;3.40;2.47;;;;;;;;;;5012303;28;20052;-37
2023/07/16 06:39:54;;;;;;;4.45;2.33;;;22.30;61.90;;;;;;5011579;28;20065;-39
2023/07/16 06:42:21;;;;;;;3.78;2.38;;;;;;;;;;5011738;28;20052;-37
2023/07/16 06:44:48;;;;;;;5.10;2.65;;;22.80;78.10;;;;;;5013160;28;20042;-39
2023/07/16 06:47:15;;;;;;;4.88;2.55;;;22.30;78.30;;;;;;5011008;28;20474;-37
2023/07/16 06:49:42;;;;;;;4.20;2.45;;;;;;;;;;5010564;28;20046;-39
2023/07/16 06:52:09;;;;;;;3.42;2.30;;;22.40;78.30;;;;;;5010471;28;20052;-38
2023/07/16 06:54:36;;;;;;;6.38;2.78;;;;;;;;;;5010355;28;20056;-35
2023/07/16 06:57:04;;;;;;;3.47;2.40;;;22.50;73.10;;;;;;5010218;28;20102;-39
2023/07/16 06:59:31;;;;;;;5.45;2.30;;;22.30;77.50;;;;;;5010385;28;20137;-39
2023/07/16 07:01:58;;;;;;;5.20;2.53;;;;;;;;;;5010153;28;20073;-37
2023/07/16 07:04:25;;;;;;;5.07;2.67;;;23.10;78.10;;;;;;5011221;28;20138;-39
2023/07/16 07:06:52;;;;;;;5.85;2.80;;;;;;;;;;5021165;28;20058;-36
2023/07/16 07:09:19;;;;;;;4.40;2.40;;;22.10;71.00;;;;;;5019615;28;20050;-39
2023/07/16 07:11:45;;;;;;;5.28;2.67;;;22.40;78.30;;;;;;5025626;28;20050;-39
2023/07/16 07:14:13;;;;;;;5.88;2.40;;;22.40;61.70;;;;;;5019522;28;20060;-33
2023/07/16 07:16:40;;;;;;;6.32;2.83;;;;;;;;;;5010101;28;20060;-34
2023/07/16 07:19:07;;;;;;;4.93;3.05;;;23.50;77.80;;;;;;5017436;28;20548;-41
2023/07/16 07:21:34;;;;;;;3.95;2.78;;;;;;;;;;5018479;28;20078;-36
2023/07/16 07:24:01;;;;;;;4.60;2.92;;;22.20;77.50;;;;;;5018596;28;20132;-40
2023/07/16 07:26:28;;;;;;;4.57;2.80;;;22.40;61.70;;;;;;5017246;28;20130;-39
2023/07/16 07:28:55;;;;;;;5.40;2.95;;;22.30;62.80;;;;;;5016818;28;20129;-37
2023/07/16 07:31:23;;;;;;;5.70;2.78;;;22.20;77.10;;;;;;5018602;28;20128;-38
2023/07/16 07:33:50;;;;;;;4.40;2.75;;;;;;;;;;5027994;27;20129;-37
2023/07/16 07:36:17;;;;;;;5.30;2.50;;;21.60;63.30;;;;;;5020522;28;20045;-38
2023/07/16 07:38:43;;;;;;;5.28;2.78;;;22.40;76.90;;;;;;5028613;28;20489;-40
2023/07/16 07:41:11;;;;;;;3.95;2.40;;;;;;;;;;5018698;28;20049;-36
2023/07/16 07:43:37;;;;;;;3.22;2.50;;;22.90;72.10;;;;;;5020075;28;20049;-40
2023/07/16 07:46:05;;;;;;;4.88;2.80;;;21.90;64.30;;;;;;5020676;28;20124;-38
2023/07/16 07:48:33;;;;;;;4.13;2.40;;;22.40;61.50;;;;;;5024032;27;20182;-38
2023/07/16 07:51:00;;;;;;;4.07;2.60;;;22.30;76.80;;;;;;5022626;28;20041;-36
2023/07/16 07:53:27;;;;;;;3.95;2.58;;;22.30;76.80;;;;;;5028279;28;20057;-39
2023/07/16 07:55:54;;;;;;;3.28;2.55;;;22.90;66.20;;;;;;5029588;28;20660;-40
2023/07/16 07:58:21;;;;;;;4.40;2.75;;;;;;;;;;5028978;28;20540;-36
2023/07/16 08:00:49;;;;;;;4.50;2.53;;;;;;;;;;5025146;28;20077;-40
2023/07/16 08:03:15;;;;;;;4.40;2.60;;;21.70;77.10;;;;;;5009078;28;20052;-38
2023/07/16 08:05:43;;;;;;;4.95;2.33;;;22.50;61.50;;;;;;5019592;28;20555;-40
2023/07/16 08:08:10;;;;;;;3.92;2.55;;;22.60;71.70;;;;;;5020279;28;20128;-39
2023/07/16 08:10:37;;;;;;;6.28;2.65;;;22.70;76.40;;;;;;5018558;28;20413;-40
2023/07/16 08:13:04;;;;;;;3.83;2.50;;;;;;;;;;5019356;28;20135;-37
2023/07/16 08:15:30;;;;;;;3.72;2.80;;;23.40;77.00;;;;;;5018963;28;20128;-39
2023/07/16 08:17:59;;;;;;;4.60;2.65;;;23.60;76.90;;;;;;5018216;28;20494;-40
2023/07/16 08:20:26;;;;;;;3.42;2.53;;;;;;;;;;5009036;28;20052;-38
2023/07/16 08:22:54;;;;;;;4.05;2.60;;;22.70;76.90;;;;;;5008812;28;20050;-40
2023/07/16 08:25:21;;;;;;;4.20;2.63;;;22.40;77.10;;;;;;5008238;28;20136;-39
2023/07/16 08:27:48;;;;;;;4.68;2.65;;;22.50;70.80;;;;;;5022771;28;20051;-40
2023/07/16 08:30:15;;;;;;;4.15;2.53;;;;;;;;;;5028421;28;20041;-36
2023/07/16 08:32:42;;;;;;;3.80;2.50;;;23.20;76.60;;;;;;5021911;28;20534;-39
2023/07/16 08:35:12;;;;;;;4.20;2.70;;;22.50;63.70;;;;;;5008989;28;20081;-38
2023/07/16 08:37:39;;;;;;;3.95;2.83;;;;;;;;;;5022922;28;20052;-36
2023/07/16 08:40:09;;;;;;;4.75;2.70;;;22.70;76.10;;;;;;5027260;28;20490;-37
2023/07/16 08:42:37;;;;;;;4.53;2.65;;;22.50;71.70;;;;;;5028361;28;20049;-38
2023/07/16 08:45:04;;;;;;;4.20;2.70;;;22.50;76.60;;;;;;5027860;28;20136;-39
2023/07/16 08:47:31;;;;;;;5.15;2.50;;;;;;;;;;5028329;28;20092;-36
2023/07/16 08:50:00;;;;;;;6.30;2.60;;;;;;;;;;5024372;28;20045;-38
2023/07/16 08:52:27;;;;;;;5.85;2.60;;;22.70;76.30;;;;;;5028189;28;20054;-38
2023/07/16 08:54:54;;;;;;;3.85;2.75;;;22.90;75.50;;;;;;5025481;28;20141;-40
2023/07/16 08:57:22;;;;;;;5.90;2.80;;;22.90;62.00;;;;;;5007798;28;20041;-38
2023/07/16 08:59:49;;;;;;;4.60;2.72;;;22.70;76.00;;;;;;5007781;28;20042;-40
2023/07/16 09:02:16;;;;;;;6.93;3.15;;;23.20;61.70;;;;;;5020132;28;20049;-39
2023/07/16 09:04:43;;;;;;;4.78;2.80;;;22.90;77.10;;;;;;5028146;28;20158;-41
2023/07/16 09:07:10;;;;;;;5.85;2.70;;;;;;;;;;5016503;28;20466;-37
2023/07/16 09:09:36;;;;;;;4.72;2.70;;;22.70;65.40;;;;;;5007985;28;20324;-39
2023/07/16 09:12:04;;;;;;;4.25;2.90;;;;;;;;;;5007846;28;20131;-33
2023/07/16 09:14:32;;;;;;;3.78;2.35;;;23.00;68.60;;;;;;5007715;28;20050;-39
2023/07/16 09:16:58;;;;;;;3.70;2.85;;;23.50;76.40;;;;;;5008349;28;20133;-36
2023/07/16 09:19:26;;;;;;;5.32;2.80;;;22.00;75.80;;;;;;5008549;28;20050;-41
2023/07/16 09:21:53;;;;;;;6.75;3.03;;;22.60;76.70;;;;;;5007490;28;20050;-36
2023/07/16 09:24:20;;;;;;;5.65;2.75;;;22.90;76.90;;;;;;5008043;28;20060;-40
2023/07/16 09:26:50;;;;;;;6.45;2.97;;;22.20;75.90;;;;;;5007078;28;20156;-36
2023/07/16 09:29:17;;;;;;;6.47;3.20;;;22.50;74.30;;;;;;5007757;28;20050;-40
2023/07/16 09:32:02;;;;;;;7.35;3.15;;;22.70;60.70;;;;;;5007961;28;20129;-36
2023/07/16 09:34:29;;;;;;;4.55;2.80;;;;;;;;;;5008269;28;20456;-37
2023/07/16 09:36:56;;;;;;;5.68;2.58;;;23.70;77.20;;;;;;5016343;28;20049;-40
2023/07/16 09:39:23;;;;;;;3.90;2.78;;;23.10;75.60;;;;;;5027614;28;20141;-37
2023/07/16 09:41:50;;;;;;;4.22;2.60;;;23.00;77.30;;;;;;5022252;28;20124;-39
2023/07/16 09:44:17;;;;;;;3.83;2.50;;;22.80;63.00;;;;;;5014298;28;20129;-37
2023/07/16 09:46:44;;;;;;;5.03;2.47;;;;;;;;;;5027352;28;20056;-40
2023/07/16 09:49:12;;;;;;;4.53;2.90;;;22.10;60.40;;;;;;5017861;28;20129;-36
2023/07/16 09:51:40;;;;;;;3.75;2.70;;;23.30;61.00;;;;;;5016524;28;20132;-36
2023/07/16 09:54:07;;;;;;;4.57;3.10;;;;;;;;;;5021856;28;20129;-38
2023/07/16 09:56:36;;;;;;;3.55;2.50;;;22.90;74.70;;;;;;5011134;28;20060;-38
2023/07/16 09:59:02;;;;;;;4.32;2.72;;;23.20;69.40;;;;;;5027423;28;20429;-37
2023/07/16 10:01:29;;;;;;;4.00;2.60;;;23.00;60.70;;;;;;5010970;28;20050;-37
2023/07/16 10:03:57;;;;;;;7.50;2.90;;;;;;;;;;5010556;28;20470;-37
2023/07/16 10:06:25;;;;;;;3.33;2.70;;;23.00;60.70;;;;;;5010908;28;20132;-39
2023/07/16 10:08:52;;;;;;;8.63;3.65;;;;;;;;;;5011447;28;20046;-33
2023/07/16 10:11:19;;;;;;;5.50;2.90;;;;;;;;;;5010087;28;20069;-33
2023/07/16 10:13:52;;;;;;;4.13;2.55;;;23.40;76.80;;;;;;5010351;28;20498;-32
2023/07/16 10:16:22;;;;;;;8.00;3.17;;;22.60;60.50;;;;;;5024956;28;20088;-33
2023/07/16 10:18:53;;;;;;;5.30;3.05;;;23.00;60.70;;;;;;5028467;28;20089;-31
2023/07/16 10:21:25;;;;;;;6.93;2.97;;;21.90;75.60;;;;;;5030773;28;20045;-31
2023/07/16 10:23:58;;;;;;;6.22;2.65;;;22.90;60.60;;;;;;5029793;28;20133;-31
2023/07/16 10:26:27;;;;;;;5.13;2.90;;;22.90;60.70;;;;;;5018969;28;20149;-33
2023/07/16 10:28:54;;;;;;;4.38;2.80;;;;;;;;;;5012445;28;20121;-36
2023/07/16 10:31:22;;;;;;;4.50;2.60;;;22.90;60.60;;;;;;5016133;28;20125;-34
2023/07/16 10:33:59;;;;;;;4.68;3.05;;;23.50;65.50;;;;;;5025516;28;20125;-35
2023/07/16 10:36:27;;;;;;;6.53;3.00;;;22.40;61.90;;;;;;5022248;28;20132;-33
2023/07/16 10:38:54;;;;;;;5.05;2.95;;;22.50;76.50;;;;;;5019366;28;20128;-32
2023/07/16 10:41:21;;;;;;;7.47;3.20;;;;;;;;;;5024300;28;20052;-37
2023/07/16 10:43:47;;;;;;;5.07;3.40;;;23.20;75.00;;;;;;5029747;28;20063;-31
2023/07/16 10:46:14;;;;;;;6.47;3.22;;;22.70;73.80;;;;;;5030144;28;20128;-31
2023/07/16 10:48:47;;;;;;;4.43;3.22;;;23.10;60.80;;;;;;5019883;28;20046;-35
2023/07/16 10:51:15;;;;;;;4.88;3.17;;;23.00;76.00;;;;;;5010076;28;20049;-31
2023/07/16 10:53:43;;;;;;;5.47;3.55;;;22.90;60.60;;;;;;5014341;28;20462;-37
2023/07/16 10:56:10;;;;;;;6.80;3.38;;;;;;;;;;5022362;28;20136;-38
2023/07/16 10:58:37;;;;;;;6.85;3.33;;;22.90;60.60;;;;;;5010386;28;20054;-36
2023/07/16 11:01:04;;;;;;;5.68;3.70;;;22.90;76.70;;;;;;5023878;28;20042;-41
2023/07/16 11:03:31;;;;;;;6.72;3.08;;;23.50;69.70;;;;;;5009051;28;20133;-39
2023/07/16 11:05:57;;;;;;;6.22;3.15;;;22.90;64.70;;;;;;5014518;28;20437;-37
2023/07/16 11:08:24;;;;;;;4.13;3.13;;;22.70;75.70;;;;;;5011918;28;20129;-39
2023/07/16 11:10:56;;;;;;;6.53;3.03;;;23.30;76.90;;;;;;5030108;28;20049;-39
2023/07/16 11:13:27;;;;;;;5.70;3.10;;;22.40;76.50;;;;;;5029558;28;20061;-40
2023/07/16 11:15:54;;;;;;;6.68;3.33;;;;;;;;;;5029910;28;20129;-37
2023/07/16 11:18:23;;;;;;;7.15;3.70;;;23.50;76.00;;;;;;5030004;28;20049;-39
2023/07/16 11:20:51;;;;;;;4.93;3.40;;;22.90;60.30;;;;;;5029236;28;20059;-33
2023/07/16 11:23:18;;;;;;;8.52;3.53;;;;;;;;;;5012661;28;20050;-37
2023/07/16 11:25:47;;;;;;;6.05;3.40;;;22.90;60.30;;;;;;5009886;28;20062;-32
2023/07/16 11:28:15;;;;;;;5.20;3.17;;;22.90;60.30;;;;;;5010211;28;20046;-35
2023/07/16 11:30:42;;;;;;;5.47;3.42;;;;;;;;;;5020249;28;20056;-36
2023/07/16 11:33:11;;;;;;;5.03;2.90;;;22.80;76.10;;;;;;5009829;28;20054;-32
2023/07/16 11:35:37;;;;;;;3.83;3.00;;;22.50;76.00;;;;;;5016063;28;20052;-34
2023/07/16 11:38:05;;;;;;;4.65;3.20;;;22.90;60.40;;;;;;5028033;28;20071;-36
2023/07/16 11:40:34;;;;;;;7.88;3.65;;;23.80;64.70;;;;;;5028797;28;20052;-33
2023/07/16 11:43:08;;;;;;;4.85;3.20;;;22.00;66.10;;;;;;5027950;28;20049;-32
2023/07/16 11:45:36;;;;;;;4.88;3.38;;;23.00;60.50;;;;;;5029229;28;20128;-33
2023/07/16 11:48:03;;;;;;;6.10;3.40;;;23.00;75.70;;;;;;5028932;28;20045;-33
2023/07/16 11:50:30;;;;;;;5.32;3.22;;;23.00;70.80;;;;;;5029150;28;20077;-32
2023/07/16 11:52:59;;;;;;;4.90;3.08;;;24.20;67.70;;;;;;5029062;28;20077;-35
2023/07/16 11:55:26;;;;;;;3.78;3.10;;;24.20;76.40;;;;;;5029074;28;20580;-32
2023/07/16 11:57:53;;;;;;;4.22;3.08;;;;;;;;;;5028964;28;20049;-35
2023/07/16 12:00:20;;;;;;;6.03;3.47;;;;;;;;;;5029144;28;20053;-35
2023/07/16 12:02:51;;;;;;;4.82;3.25;;;23.00;60.30;;;;;;5021937;28;20046;-36
2023/07/16 12:05:18;;;;;;;5.20;3.50;;;23.00;60.40;;;;;;5019676;28;20103;-33
2023/07/16 12:07:45;;;;;;;5.18;3.30;;;;;;;;;;5017681;28;20121;-35
2023/07/16 12:10:11;;;;;;;4.68;3.30;;;22.50;75.10;;;;;;5018634;28;20124;-32
2023/07/16 12:12:39;;;;;;;5.18;3.22;;;;;;;;;;5018917;28;20058;-33
2023/07/16 12:15:06;;;;;;;3.90;3.00;;;23.50;60.70;;;;;;5011747;28;20056;-34
2023/07/16 12:17:33;;;;;;;7.47;3.42;;;;;;;;;;5011822;28;20049;-37
2023/07/16 12:20:01;;;;;;;4.13;3.00;;;23.10;63.40;;;;;;5009106;28;20137;-34
2023/07/16 12:22:28;;;;;;;4.60;3.17;;;;;;;;;;5008863;28;20081;-37
2023/07/16 12:24:55;;;;;;;5.28;3.22;;;;;;;;;;5015815;28;20128;-37
2023/07/16 12:27:22;;;;;;;4.28;3.30;;;;;;;;;;5017356;28;20057;-36
2023/07/16 12:29:50;;;;;;;4.22;3.10;;;;;;;;;;5018648;28;20132;-36
2023/07/16 12:32:16;;;;;;;6.80;3.55;;;22.80;74.90;;;;;;5012971;28;20141;-36
2023/07/16 12:34:44;;;;;;;6.60;3.13;;;;;;;;;;5019231;28;20510;-39
2023/07/16 12:37:12;;;;;;;5.20;3.42;;;22.50;60.30;;;;;;5010338;28;20045;-38
2023/07/16 12:39:39;;;;;;;5.13;3.40;;;22.30;75.70;;;;;;5022338;28;20140;-36
2023/07/16 12:42:06;;;;;;;4.78;3.13;;;22.90;60.60;;;;;;5028354;28;20045;-36
2023/07/16 12:44:33;;;;;;;5.45;3.33;;;23.10;71.20;;;;;;5027433;28;20049;-37
2023/07/16 12:47:02;;;;;;;5.28;3.00;;;22.00;75.80;;;;;;5019805;28;20060;-37
2023/07/16 12:49:28;;;;;;;5.43;3.38;;;22.80;63.30;;;;;;5028432;28;20046;-36
2023/07/16 12:51:55;;;;;;;5.70;3.17;;;23.40;76.40;;;;;;5021449;28;20408;-36
2023/07/16 12:54:23;;;;;;;5.50;3.60;;;23.40;76.10;;;;;;5008014;28;20695;-39
2023/07/16 12:56:50;;;;;;;4.85;3.10;;;22.80;63.40;;;;;;5008454;28;20099;-35
2023/07/16 12:59:17;;;;;;;5.15;3.17;;;;;;;;;;5013555;28;20132;-37
2023/07/16 13:01:44;;;;;;;5.50;3.70;;;23.80;75.20;;;;;;5018636;28;20117;-34
2023/07/16 13:04:10;;;;;;;5.05;3.40;;;23.20;66.30;;;;;;5018284;28;20203;-37
2023/07/16 13:06:37;;;;;;;3.67;3.10;;;23.30;67.00;;;;;;5016745;28;20046;-38
2023/07/16 13:09:05;;;;;;;8.27;3.40;;;;;;;;;;5016067;28;20494;-37
2023/07/16 13:11:33;;;;;;;6.75;3.60;;;23.00;60.60;;;;;;5018296;28;20046;-35
2023/07/16 13:14:00;;;;;;;3.80;2.85;;;;;;;;;;5027607;28;20132;-34
2023/07/16 13:16:27;;;;;;;4.30;3.10;;;23.30;66.90;;;;;;5017899;28;20138;-38
2023/07/16 13:18:54;;;;;;;6.65;3.45;;;22.90;75.70;;;;;;5018384;28;20053;-39
2023/07/16 13:21:20;;;;;;;5.75;3.28;;;23.00;76.90;;;;;;5016759;28;20050;-38
2023/07/16 13:23:47;;;;;;;5.15;3.50;;;22.70;76.00;;;;;;5021661;28;20128;-40